Caroline, Ohio
Current Conditions -  °F | °C
As of 2:52 PM on Monday 22 Dec 2014 (Local Time) from KMFD Reporting Station
Clear Clear  
Wind Chill: 37°   Ceiling: Unl
Heat Index: 43°   Visibility: 10mi
Dew Point: 33°   Wind: 12mph
Humidity: 68%   Direction: 110°ESE
Pressure: 29.92"   Gusts: NA
Location:  41.0654°N, 82.876°W
Report Text: KMFD 221952Z 11010KT 10SM CLR 06/01 A2992 RMK AO2 SLP143 T00610006
Loading
Personal Weather Stations






























Interactive Weather Map New forecast layout! Learn more

10-Day Weather Forecast

Advertisements
Track Severe Weather on mobile